Latest Weather Observations for Cape Bruny AWS

IDT60801

Issued at 10:05 pm EST Monday 22 September 2014 (issued every 30 minutes, with the page automatically refreshed every 10 minutes)

About weather observations | Map of weather stations | Latest weather observations for TAS | Other Formats
Station Details ID: 094198 Name: CAPE BRUNY (CAPE BRUNY) Lat: -43.49 Lon: 147.14 Height: 59.7 m
Data from the previous 72 hours. | See also: Recent months at Cape Bruny AWS
Date/Time
EST
Temp
°C
App
Temp
°C
Dew
Point
Rel
Hum
%
Delta-T
°C
Wind Press
QNH
hPa
Press
MSL
hPa
Rain
since 9 am
mm
Dir
 
Spd
km/h
Gust
km/h
Spd
kts
Gust
kts
22/10:00pm 11.7 10.2 4.9 63 3.1 NE 2 9 1 5 1023.1 1023.1 0.0
22/09:30pm 11.8 8.3 3.6 57 3.6 NNW 11 15 6 8 1022.9 1022.9 0.0
22/09:00pm 10.7 8.3 6.8 77 1.8 NE 9 13 5 7 1022.8 1022.8 0.0
22/08:30pm 11.1 9.5 8.1 82 1.5 ENE 6 7 3 4 1022.7 1022.7 0.0
22/08:00pm 10.7 8.7 8.8 88 0.9 E 9 13 5 7 1022.8 1022.8 0.0
22/07:30pm 11.1 8.4 8.8 86 1.1 ESE 13 17 7 9 1022.5 1022.5 0.0
22/07:00pm 11.3 8.9 8.5 83 1.4 ESE 11 15 6 8 1022.1 1022.1 0.0
22/06:30pm 11.3 8.5 8.5 83 1.4 E 13 19 7 10 1021.7 1021.7 0.0
22/06:00pm 11.4 8.6 8.6 83 1.4 E 13 15 7 8 1021.7 1021.7 0.0
22/05:30pm 11.9 9.1 8.7 81 1.6 E 13 15 7 8 1021.6 1021.6 0.0
22/05:00pm 12.6 10.3 8.9 78 1.9 E 11 15 6 8 1021.6 1021.6 0.0
22/04:30pm 13.1 10.7 8.8 75 2.2 ESE 11 15 6 8 1021.8 1021.8 0.0
22/04:00pm 13.2 10.1 8.9 75 2.2 ESE 15 19 8 10 1021.8 1021.8 0.0
22/03:30pm 13.8 10.6 8.4 70 2.7 ESE 15 19 8 10 1021.9 1021.9 0.0
22/03:00pm 13.8 10.9 8.2 69 2.8 ESE 13 19 7 10 1022.0 1022.0 0.0
22/02:30pm 13.1 9.9 8.4 73 2.3 ESE 15 19 8 10 1022.0 1022.0 0.0
22/02:00pm 13.8 10.7 9.0 73 2.4 ESE 15 19 8 10 1022.4 1022.4 0.0
22/01:30pm 13.7 11.1 7.9 68 2.9 ESE 11 15 6 8 1022.7 1022.7 0.0
22/01:00pm 14.3 11.8 8.0 66 3.1 E 11 13 6 7 1023.0 1023.0 0.0
22/12:30pm 14.2 12.0 7.9 66 3.1 SE 9 13 5 7 1023.6 1023.6 0.0
22/12:00pm 13.9 11.8 8.1 68 2.9 S 9 13 5 7 1024.1 1024.2 0.0
22/11:30am 13.1 10.2 8.0 71 2.5 S 13 15 7 8 1024.4 1024.5 0.0
22/11:00am 12.8 10.1 7.5 70 2.6 S 11 15 6 8 1024.7 1024.8 0.0
22/10:30am 12.8 10.8 7.3 69 2.7 W 7 11 4 6 1024.8 1024.9 0.0
22/10:00am 12.1 10.2 7.4 73 2.3 W 7 11 4 6 1025.0 1025.1 0.0
22/09:30am 11.3 8.9 6.8 74 2.1 W 9 13 5 7 1025.4 1025.5 0.0
22/09:00am 11.5 9.1 6.8 73 2.2 W 9 11 5 6 1025.6 1025.7 0.0
22/08:30am 11.9 9.4 6.6 70 2.5 SW 9 11 5 6 1025.7 1025.8 0.0
22/08:00am 10.7 6.3 6.5 75 2.0 N 19 26 10 14 1025.6 1025.7 0.0
22/07:30am 9.3 4.3 6.6 83 1.3 N 22 28 12 15 1025.7 1025.8 0.0
22/07:00am 8.4 3.3 6.2 86 1.0 N 22 28 12 15 1025.5 1025.6 0.0
22/06:30am 7.6 3.0 5.7 88 0.9 N 19 24 10 13 1025.6 1025.7 0.0
22/06:00am 7.5 2.7 5.8 89 0.8 N 20 28 11 15 1025.5 1025.6 0.0
22/05:30am 7.4 2.2 5.5 88 0.8 N 22 30 12 16 1025.3 1025.4 0.0
22/05:00am 7.3 3.5 5.8 90 0.7 N 15 24 8 13 1025.4 1025.5 0.0
22/04:30am 7.2 2.6 5.8 91 0.6 N 19 24 10 13 1025.2 1025.3 0.0
22/04:00am 7.1 2.8 5.4 89 0.8 N 17 20 9 11 1025.1 1025.2 0.0
22/03:30am 7.5 2.9 5.8 89 0.8 N 19 20 10 11 1025.5 1025.6 0.0
22/03:00am 7.5 3.7 5.8 89 0.8 N 15 19 8 10 1025.6 1025.7 0.0
22/02:30am 6.9 4.0 4.7 86 1.0 N 9 13 5 7 1025.8 1025.9 0.0
22/02:00am 7.3 4.1 4.9 85 1.1 N 11 11 6 6 1026.2 1026.3 0.0
22/01:30am 7.5 3.8 4.6 82 1.3 N 13 15 7 8 1026.3 1026.4 0.0
22/01:00am 8.5 5.7 5.1 79 1.5 N 9 11 5 6 1026.4 1026.5 0.0
22/12:30am 8.4 5.5 4.8 78 1.6 NW 9 15 5 8 1026.6 1026.7 0.0
22/12:00am 9.4 6.2 5.0 74 2.0 NW 11 17 6 9 1026.8 1026.9 0.0
 
Date/Time
EST
Temp
°C
App
Temp
°C
Dew
Point
Rel
Hum
%
Delta-T
°C
Wind Press
QNH
hPa
Press
MSL
hPa
Rain
since 9 am
mm
Dir
 
Spd
km/h
Gust
km/h
Spd
kts
Gust
kts
21/11:30pm 10.0 5.2 4.8 70 2.3 WNW 19 26 10 14 1026.9 1027.0 0.0
21/11:00pm 9.9 5.8 4.5 69 2.4 NW 15 22 8 12 1027.0 1027.1 0.0
21/10:30pm 10.6 6.2 4.5 66 2.7 NW 17 24 9 13 1027.1 1027.2 0.0
21/10:00pm 10.8 6.0 4.7 66 2.7 NW 19 24 10 13 1027.4 1027.5 0.0
21/09:30pm 10.9 5.4 5.7 70 2.4 WNW 24 35 13 19 1027.6 1027.7 0.0
21/09:00pm 10.8 5.2 5.3 69 2.5 WNW 24 35 13 19 1027.4 1027.5 0.0
21/08:30pm 10.5 6.7 5.7 72 2.2 W 15 24 8 13 1027.4 1027.5 0.0
21/08:00pm 10.3 8.0 5.9 74 2.0 WNW 7 11 4 6 1027.3 1027.4 0.0
21/07:30pm 11.1 7.1 6.5 73 2.2 WSW 17 20 9 11 1027.0 1027.1 0.0
21/07:00pm 11.3 6.9 6.4 72 2.3 WSW 19 24 10 13 1026.7 1026.8 0.0
21/06:30pm 11.5 6.9 6.6 72 2.3 WSW 20 28 11 15 1026.5 1026.6 0.0
21/06:00pm 12.1 6.8 6.6 69 2.6 WSW 24 30 13 16 1026.3 1026.4 0.0
21/05:30pm 12.9 8.0 7.1 68 2.8 WSW 22 32 12 17 1026.0 1026.1 0.0
21/05:00pm 13.8 9.4 7.3 65 3.2 SW 20 28 11 15 1025.9 1026.0 0.0
21/04:30pm 14.9 10.7 7.5 61 3.7 WSW 19 30 10 16 1025.7 1025.8 0.0
21/04:00pm 15.2 10.5 7.7 61 3.7 WSW 22 30 12 16 1025.4 1025.5 0.0
21/03:30pm 15.4 9.4 7.2 58 4.1 WSW 28 39 15 21 1025.2 1025.3 0.0
21/03:00pm 15.9 9.5 7.1 56 4.3 WSW 30 41 16 22 1025.1 1025.2 0.0
21/02:30pm 16.2 9.8 6.9 54 4.6 WSW 30 43 16 23 1025.2 1025.3 0.0
21/02:00pm 16.3 12.1 8.3 59 4.0 W 20 30 11 16 1025.4 1025.5 0.0
21/01:30pm 16.4 10.4 7.1 54 4.6 WSW 28 39 15 21 1025.4 1025.5 0.0
21/01:00pm 17.0 11.9 7.6 54 4.7 WSW 24 32 13 17 1025.4 1025.5 0.0
21/12:30pm 16.9 12.9 6.7 51 5.0 WSW 17 22 9 12 1025.6 1025.7 0.0
21/12:00pm 16.8 13.6 5.1 46 5.6 W 11 17 6 9 1025.8 1025.9 0.0
21/11:30am 16.2 14.0 6.3 52 4.8 W 7 11 4 6 1025.8 1025.9 0.0
21/11:00am 15.9 12.3 6.6 54 4.5 W 15 20 8 11 1025.8 1025.9 0.0
21/10:30am 15.3 12.8 6.6 56 4.2 WNW 9 15 5 8 1025.9 1026.0 0.0
21/10:00am 14.6 12.0 6.2 57 4.0 W 9 11 5 6 1026.1 1026.2 0.0
21/09:30am 13.8 11.3 6.4 61 3.6 W 9 13 5 7 1026.1 1026.2 0.0
21/09:00am 13.2 10.0 6.8 65 3.1 W 13 17 7 9 1025.9 1026.0 0.2
21/08:30am 12.5 7.7 7.4 71 2.5 W 22 32 12 17 1025.9 1026.0 0.2
21/08:00am 11.6 5.7 7.7 77 1.9 WSW 28 35 15 19 1025.8 1025.9 0.2
21/07:30am 10.7 2.7 7.4 80 1.6 W 39 50 21 27 1025.3 1025.4 0.2
21/07:00am 10.8 1.6 8.0 83 1.4 W 46 57 25 31 1025.0 1025.1 0.2
21/06:30am 10.5 1.9 8.3 86 1.1 WSW 43 52 23 28 1024.7 1024.8 0.2
21/06:00am 10.7 2.6 8.5 86 1.1 WSW 41 50 22 27 1024.4 1024.5 0.2
21/05:30am 10.7 3.0 8.6 87 1.0 WSW 39 48 21 26 1024.1 1024.2 0.2
21/05:00am 10.8 2.8 8.9 88 0.9 WSW 41 50 22 27 1024.1 1024.2 0.2
21/04:30am 10.8 2.1 8.6 86 1.1 W 44 54 24 29 1024.0 1024.1 0.2
21/04:00am 11.0 2.8 8.0 82 1.5 W 41 50 22 27 1023.8 1023.9 0.2
21/03:41am 11.0 5.2 7.9 81 1.5 W 28 35 15 19 1024.0 1024.1 0.2
21/03:30am 10.3 7.8 6.6 78 1.7 W 9 13 5 7 1024.0 1024.1 0.2
21/03:00am 10.5 7.6 6.6 77 1.8 W 11 15 6 8 1023.8 1023.9 0.2
21/02:30am 10.7 8.2 6.6 76 1.9 W 9 13 5 7 1024.0 1024.1 0.2
21/02:00am 11.2 7.3 6.9 75 2.0 W 17 24 9 13 1024.2 1024.3 0.2
21/01:30am 11.3 6.7 6.4 72 2.3 W 20 28 11 15 1024.3 1024.4 0.2
21/01:00am 11.1 6.5 6.3 72 2.2 WNW 20 26 11 14 1024.4 1024.5 0.2
21/12:30am 11.3 5.7 5.4 67 2.7 WNW 24 35 13 19 1024.5 1024.6 0.2
21/12:00am 11.2 4.1 5.5 68 2.6 WNW 32 41 17 22 1024.3 1024.4 0.2
 
Date/Time
EST
Temp
°C
App
Temp
°C
Dew
Point
Rel
Hum
%
Delta-T
°C
Wind Press
QNH
hPa
Press
MSL
hPa
Rain
since 9 am
mm
Dir
 
Spd
km/h
Gust
km/h
Spd
kts
Gust
kts
20/11:30pm 10.8 4.0 5.3 69 2.5 WNW 30 35 16 19 1024.4 1024.5 0.2
20/11:00pm 10.7 3.9 5.0 68 2.6 NW 30 35 16 19 1024.6 1024.7 0.2
20/10:30pm 10.9 4.5 5.4 69 2.5 WNW 28 37 15 20 1024.7 1024.8 0.2
20/10:00pm 11.0 5.2 4.5 64 2.9 WNW 24 33 13 18 1024.8 1024.9 0.2
20/09:30pm 11.3 4.1 5.0 65 2.9 W 32 39 17 21 1025.0 1025.1 0.2
20/09:00pm 11.4 3.9 4.2 61 3.2 W 33 44 18 24 1025.1 1025.2 0.2
20/08:30pm 11.4 3.2 4.8 64 3.0 W 37 44 20 24 1025.0 1025.1 0.2
20/08:00pm 11.3 3.9 4.1 61 3.2 W 32 43 17 23 1025.0 1025.1 0.2
20/07:30pm 11.1 3.0 5.2 67 2.7 W 37 48 20 26 1024.7 1024.8 0.2
20/07:00pm 11.0 3.9 5.5 69 2.5 W 32 44 17 24 1024.5 1024.6 0.2
20/06:30pm 11.0 4.2 5.3 68 2.6 W 30 39 16 21 1024.3 1024.4 0.2
20/06:00pm 11.0 3.2 4.9 66 2.8 W 35 48 19 26 1024.0 1024.1 0.2
20/05:52pm 11.2 3.4 4.9 65 2.9 WSW 35 48 19 26 1024.0 1024.1 0.2
20/05:30pm 11.7 7.1 6.6 71 2.4 WSW 20 28 11 15 1023.7 1023.7 0.2
20/05:00pm 11.2 4.7 6.3 72 2.3 W 30 41 16 22 1023.2 1023.2 0.2
20/04:30pm 11.7 4.7 6.0 68 2.7 W 32 44 17 24 1023.0 1023.0 0.2
20/04:00pm 11.8 2.7 5.9 67 2.7 WSW 43 54 23 29 1023.5 1023.5 0.2
20/03:30pm 12.8 4.4 5.5 61 3.4 W 39 52 21 28 1022.9 1022.9 0.2
20/03:02pm 12.4 2.7 5.6 63 3.2 W 46 65 25 35 1023.0 1023.0 0.2
20/03:00pm 12.5 2.1 6.1 65 3.0 W 50 65 27 35 1023.0 1023.0 0.2
20/02:50pm 12.4 2.4 6.0 65 3.0 W 48 67 26 36 1023.0 1023.0 0.2
20/02:30pm 11.4 1.9 6.5 72 2.3 WSW 46 57 25 31 1023.1 1023.1 0.2
20/02:00pm 12.5 3.4 7.0 69 2.6 W 44 56 24 30 1023.0 1023.0 0.2
20/01:37pm 12.1 3.1 6.6 69 2.6 WSW 43 63 23 34 1022.9 1022.9 0.2
20/01:30pm 11.8 3.4 7.5 75 2.1 WSW 41 54 22 29 1023.2 1023.2 0.2
20/01:02pm 11.9 2.0 6.8 71 2.4 W 48 67 26 36 1023.0 1023.0 0.2
20/01:00pm 12.0 1.8 7.1 72 2.3 W 50 67 27 36 1023.0 1023.0 0.2
20/12:30pm 11.7 0.8 7.2 74 2.2 WSW 54 67 29 36 1022.9 1022.9 0.2
20/12:00pm 11.7 1.1 7.0 73 2.2 W 52 61 28 33 1022.9 1022.9 0.2
20/11:30am 12.6 4.5 7.1 69 2.7 WSW 39 48 21 26 1023.1 1023.1 0.2
20/11:09am 13.2 4.7 6.8 65 3.1 W 41 59 22 32 1023.1 1023.1 0.2
20/11:00am 12.1 2.4 5.9 66 2.9 W 46 59 25 32 1023.1 1023.1 0.2
20/10:37am 12.0 2.5 6.7 70 2.5 WSW 46 65 25 35 1022.9 1022.9 0.2
20/10:30am 11.9 3.1 7.2 73 2.3 WSW 43 54 23 29 1022.9 1022.9 0.2
20/10:11am 12.8 5.7 6.2 64 3.1 W 33 54 18 29 1022.9 1022.9 0.2
20/10:00am 12.6 4.9 6.9 68 2.7 WSW 37 44 20 24 1023.0 1023.0 0.2
20/09:30am 10.5 2.4 7.0 79 1.7 WSW 39 50 21 27 1022.9 1022.9 0.2
20/09:00am 10.2 2.8 6.7 79 1.6 WSW 35 48 19 26 1022.8 1022.8 4.0
20/08:30am 9.7 2.4 7.0 83 1.3 WSW 35 48 19 26 1022.7 1022.7 4.0
20/08:00am 10.3 4.6 6.5 77 1.8 W 26 35 14 19 1022.6 1022.6 4.0
20/07:30am 9.9 3.1 7.0 82 1.4 W 32 43 17 23 1022.4 1022.4 4.0
20/07:00am 9.7 2.6 6.6 81 1.4 W 33 48 18 26 1022.1 1022.1 4.0
20/06:30am 9.8 2.8 6.7 81 1.5 W 33 43 18 23 1021.8 1021.8 4.0
20/06:17am 9.9 2.4 6.4 79 1.6 W 35 54 19 29 1021.6 1021.6 4.0
20/06:00am 9.9 2.0 6.4 79 1.6 W 37 44 20 24 1021.4 1021.4 4.0
20/05:30am 10.0 2.2 6.7 80 1.6 W 37 44 20 24 1021.0 1021.0 4.0
20/05:00am 9.4 1.3 7.0 85 1.1 W 39 50 21 27 1020.8 1020.8 4.0
20/04:30am 9.6 1.5 6.9 83 1.3 W 39 52 21 28 1020.6 1020.6 4.0
20/04:00am 9.5 1.2 7.8 89 0.8 WSW 41 50 22 27 1020.4 1020.4 4.0
20/03:30am 9.6 1.3 7.9 89 0.8 WSW 41 54 22 29 1020.0 1020.0 4.0
20/03:00am 9.8 0.6 7.9 88 0.9 W 46 57 25 31 1019.7 1019.7 4.0
20/02:30am 10.2 1.9 7.8 85 1.2 WSW 41 52 22 28 1019.6 1019.6 4.0
20/02:00am 10.4 1.2 7.8 84 1.3 WSW 46 59 25 32 1019.2 1019.2 4.0
20/01:30am 10.2 0.1 7.4 83 1.3 WSW 50 65 27 35 1019.2 1019.2 4.0
20/01:00am 10.2 1.4 8.0 86 1.1 WSW 44 54 24 29 1019.4 1019.4 4.0
20/12:30am 10.2 1.1 8.3 88 0.9 WSW 46 63 25 34 1019.0 1019.1 4.0
20/12:00am 10.2 1.5 7.8 85 1.2 WSW 43 61 23 33 1018.8 1018.9 4.0
 
Date/Time
EST
Temp
°C
App
Temp
°C
Dew
Point
Rel
Hum
%
Delta-T
°C
Wind Press
QNH
hPa
Press
MSL
hPa
Rain
since 9 am
mm
Dir
 
Spd
km/h
Gust
km/h
Spd
kts
Gust
kts
19/11:30pm 10.2 0.3 8.3 88 0.9 W 50 63 27 34 1018.7 1018.8 3.8
19/11:00pm 10.4 1.8 8.2 86 1.1 WSW 43 56 23 30 1018.7 1018.8 3.8
19/10:30pm 10.3 1.8 8.4 88 0.9 WSW 43 54 23 29 1018.6 1018.7 3.8

Other Formats:

Comma delimited format used in spreadsheet applications
http://www.bom.gov.au/fwo/IDT60801/IDT60801.95967.axf

JavaScript Object Notation format (JSON) in row-major order
http://www.bom.gov.au/fwo/IDT60801/IDT60801.95967.json